Time;durP1;ratioP1;P1;durP2;ratioP2;P2;SDS_P1;SDS_P2;PMS_P1;PMS_P2;Temp;Humidity;BMP_temperature;BMP_pressure;BME280_temperature;BME280_humidity;BME280_pressure;Samples;Min_cycle;Max_cycle;Signal;HPM_P1;HPM_P2
2023/11/21 00:00:14;;;;;;;4.40;0.55;;;10.50;99.90;;;;;;4921918;29;20389;-83
2023/11/21 00:02:41;;;;;;;8.50;1.23;;;10.50;99.90;;;;;;4921080;29;20035;-83
2023/11/21 00:05:12;;;;;;;2.38;0.65;;;10.50;99.90;;;;;;4922024;29;20070;-83
2023/11/21 00:07:38;;;;;;;3.45;0.73;;;10.60;99.90;;;;;;4920925;29;20032;-83
2023/11/21 00:10:05;;;;;;;4.47;0.77;;;10.50;99.90;;;;;;4921590;29;20027;-83
2023/11/21 00:12:31;;;;;;;6.55;1.10;;;10.50;99.90;;;;;;4921300;29;20114;-83
2023/11/21 00:14:57;;;;;;;2.70;0.77;;;10.50;99.90;;;;;;4921505;29;20191;-83
2023/11/21 00:17:23;;;;;;;1.45;0.60;;;10.40;99.90;;;;;;4921120;29;20175;-83
2023/11/21 00:19:48;;;;;;;4.70;0.80;;;10.50;99.90;;;;;;4921781;29;20063;-84
2023/11/21 00:22:15;;;;;;;3.88;0.90;;;10.40;99.90;;;;;;4938512;29;20028;-83
2023/11/21 00:24:41;;;;;;;3.88;0.85;;;10.40;99.90;;;;;;4937545;29;20034;-83
2023/11/21 00:27:06;;;;;;;3.78;0.82;;;10.40;99.90;;;;;;4920868;29;20126;-82
2023/11/21 00:29:32;;;;;;;4.65;0.70;;;10.40;99.90;;;;;;4937539;29;20036;-82
2023/11/21 00:31:58;;;;;;;5.43;0.80;;;10.40;99.90;;;;;;4921381;29;20070;-83
2023/11/21 00:34:23;;;;;;;3.13;1.00;;;10.40;99.90;;;;;;4920804;29;20031;-83
2023/11/21 00:36:49;;;;;;;3.80;0.80;;;10.40;99.90;;;;;;4921345;29;20470;-83
2023/11/21 00:39:15;;;;;;;3.75;0.73;;;10.40;99.90;;;;;;4921302;29;20024;-83
2023/11/21 00:41:41;;;;;;;2.78;0.75;;;10.40;99.90;;;;;;4920639;29;20474;-83
2023/11/21 00:44:07;;;;;;;4.85;0.93;;;10.40;99.90;;;;;;4921205;29;20058;-83
2023/11/21 00:46:33;;;;;;;6.40;0.70;;;10.40;99.90;;;;;;4920869;29;20544;-84
2023/11/21 00:48:58;;;;;;;7.05;0.93;;;10.40;99.90;;;;;;4937659;29;20028;-83
2023/11/21 00:51:24;;;;;;;5.88;1.08;;;10.40;99.90;;;;;;4920653;29;20114;-83
2023/11/21 00:53:50;;;;;;;3.35;0.90;;;10.40;99.90;;;;;;4920923;29;20036;-83
2023/11/21 00:56:15;;;;;;;5.22;0.88;;;10.40;99.90;;;;;;4920351;29;20071;-83
2023/11/21 00:58:46;;;;;;;3.58;0.70;;;10.40;99.90;;;;;;4920362;29;20470;-83
2023/11/21 01:01:12;;;;;;;4.55;0.65;;;10.40;99.90;;;;;;4920714;29;20051;-83
2023/11/21 01:03:38;;;;;;;6.32;1.20;;;10.40;99.90;;;;;;4920061;29;20043;-83
2023/11/21 01:06:07;;;;;;;4.60;0.80;;;10.50;99.90;;;;;;4937238;29;20462;-83
2023/11/21 01:08:33;;;;;;;10.10;0.60;;;10.50;99.90;;;;;;4937243;29;20023;-83
2023/11/21 01:10:59;;;;;;;3.92;0.70;;;10.50;99.90;;;;;;4920593;29;20031;-83
2023/11/21 01:13:29;;;;;;;3.22;0.63;;;10.50;99.90;;;;;;4937183;29;20039;-83
2023/11/21 01:15:55;;;;;;;2.85;0.68;;;10.50;99.90;;;;;;4937092;29;20024;-83
2023/11/21 01:18:21;;;;;;;3.08;0.85;;;10.50;99.90;;;;;;4937040;29;20087;-83
2023/11/21 01:20:46;;;;;;;6.45;0.70;;;10.50;99.90;;;;;;4919792;29;20023;-83
2023/11/21 01:23:13;;;;;;;6.20;0.50;;;10.50;99.90;;;;;;4937289;29;20035;-84
2023/11/21 01:25:38;;;;;;;3.53;0.70;;;10.50;99.90;;;;;;4919848;29;20039;-82
2023/11/21 01:28:04;;;;;;;2.25;0.55;;;10.50;99.90;;;;;;4920957;29;20119;-83
2023/11/21 01:30:29;;;;;;;2.17;0.60;;;10.50;99.90;;;;;;4920069;29;20038;-83
2023/11/21 01:32:55;;;;;;;5.47;0.75;;;10.50;99.90;;;;;;4920315;29;20082;-82
2023/11/21 01:35:20;;;;;;;4.78;0.90;;;10.50;99.90;;;;;;4936765;29;20537;-82
2023/11/21 01:37:48;;;;;;;3.65;0.80;;;10.50;99.90;;;;;;4919878;29;20035;-82
2023/11/21 01:40:13;;;;;;;6.18;0.50;;;10.50;99.90;;;;;;4920182;29;20024;-82
2023/11/21 01:42:40;;;;;;;2.95;0.98;;;10.50;99.90;;;;;;4919880;29;20461;-82
2023/11/21 01:45:06;;;;;;;1.13;0.63;;;10.50;99.90;;;;;;4920295;29;20035;-82
2023/11/21 01:47:36;;;;;;;2.17;0.80;;;10.50;99.90;;;;;;4919575;29;20064;-82
2023/11/21 01:50:04;;;;;;;3.42;0.75;;;10.50;99.90;;;;;;4920072;29;20047;-82
2023/11/21 01:52:30;;;;;;;4.32;0.80;;;10.40;99.90;;;;;;4919817;29;20028;-83
2023/11/21 01:54:58;;;;;;;2.92;0.82;;;10.50;99.90;;;;;;4920411;29;20032;-83
2023/11/21 01:57:24;;;;;;;4.00;0.73;;;10.40;99.90;;;;;;4919833;29;20056;-82
2023/11/21 01:59:53;;;;;;;4.15;0.85;;;10.40;99.90;;;;;;4919648;29;20473;-83
2023/11/21 02:02:19;;;;;;;3.30;0.70;;;10.40;99.90;;;;;;4920289;29;20031;-82
2023/11/21 02:04:45;;;;;;;2.38;0.70;;;10.40;99.90;;;;;;4919686;29;20039;-83
2023/11/21 02:07:11;;;;;;;4.35;1.00;;;10.40;99.90;;;;;;4920321;29;20028;-84
2023/11/21 02:09:42;;;;;;;8.40;1.05;;;10.40;99.90;;;;;;4919647;29;20034;-84
2023/11/21 02:12:10;;;;;;;5.50;0.80;;;10.40;99.90;;;;;;4920081;29;20028;-82
2023/11/21 02:14:36;;;;;;;3.25;0.88;;;10.30;99.90;;;;;;4919812;29;20071;-83
2023/11/21 02:17:03;;;;;;;8.60;1.17;;;10.30;99.90;;;;;;4919781;29;20035;-84
2023/11/21 02:19:30;;;;;;;1.92;0.80;;;10.30;99.90;;;;;;4919766;29;20039;-83
2023/11/21 02:22:03;;;;;;;3.28;0.93;;;10.30;99.90;;;;;;4920191;29;20032;-83
2023/11/21 02:24:29;;;;;;;3.53;1.10;;;10.30;99.90;;;;;;4920080;29;20087;-82
2023/11/21 02:26:54;;;;;;;2.88;0.65;;;10.30;99.90;;;;;;4936831;29;20039;-83
2023/11/21 02:29:28;;;;;;;5.13;0.80;;;10.20;99.90;;;;;;4919938;29;20058;-82
2023/11/21 02:31:54;;;;;;;3.50;0.65;;;10.20;99.90;;;;;;4922974;29;20032;-83
2023/11/21 02:34:21;;;;;;;1.83;0.90;;;10.20;99.90;;;;;;4923114;29;20040;-83
2023/11/21 02:36:49;;;;;;;2.95;0.60;;;10.20;99.90;;;;;;4939763;29;20034;-83
2023/11/21 02:39:16;;;;;;;2.50;0.70;;;10.20;99.90;;;;;;4923310;29;20070;-82
2023/11/21 02:41:42;;;;;;;2.20;0.77;;;10.20;99.90;;;;;;4922870;29;20038;-83
2023/11/21 02:44:08;;;;;;;3.53;0.73;;;10.20;99.90;;;;;;4939885;29;20035;-83
2023/11/21 02:46:34;;;;;;;3.60;1.02;;;10.20;99.90;;;;;;4922697;29;20531;-84
2023/11/21 02:49:06;;;;;;;5.80;0.80;;;10.20;99.90;;;;;;4923120;29;20496;-81
2023/11/21 02:51:32;;;;;;;7.95;1.75;;;10.20;99.90;;;;;;4922866;29;20524;-84
2023/11/21 02:53:58;;;;;;;5.28;0.90;;;10.20;99.90;;;;;;4922517;29;20047;-83
2023/11/21 02:56:27;;;;;;;3.13;0.95;;;10.20;99.90;;;;;;4939735;29;20123;-84
2023/11/21 02:58:55;;;;;;;4.05;0.90;;;10.10;99.90;;;;;;4922616;29;20027;-83
2023/11/21 03:01:21;;;;;;;4.10;0.70;;;10.20;99.90;;;;;;4939847;29;20525;-83
2023/11/21 03:03:50;;;;;;;6.25;0.73;;;10.10;99.90;;;;;;4922448;29;20035;-84
2023/11/21 03:06:19;;;;;;;5.43;0.50;;;10.10;99.90;;;;;;4922546;29;20024;-81
2023/11/21 03:08:45;;;;;;;4.90;0.80;;;10.10;99.90;;;;;;4922172;29;20032;-83
2023/11/21 03:11:12;;;;;;;6.88;1.15;;;10.10;99.90;;;;;;4922699;29;20023;-83
2023/11/21 03:13:39;;;;;;;5.28;1.02;;;10.10;99.90;;;;;;4922413;29;20123;-83
2023/11/21 03:16:06;;;;;;;2.92;0.70;;;10.10;99.90;;;;;;4922472;29;20028;-82
2023/11/21 03:18:31;;;;;;;3.47;0.80;;;10.10;99.90;;;;;;4922594;29;20086;-83
2023/11/21 03:20:57;;;;;;;4.30;0.80;;;10.10;99.90;;;;;;4922361;29;20027;-84
2023/11/21 03:23:23;;;;;;;4.10;0.70;;;10.00;99.90;;;;;;4922288;29;20056;-83
2023/11/21 03:25:48;;;;;;;1.50;0.60;;;10.10;99.90;;;;;;4921863;29;20040;-84
2023/11/21 03:28:14;;;;;;;4.97;0.90;;;10.10;99.90;;;;;;4938972;29;20553;-84
2023/11/21 03:30:39;;;;;;;2.05;0.70;;;10.10;99.90;;;;;;4921969;29;20362;-83
2023/11/21 03:33:05;;;;;;;1.55;1.10;;;10.10;99.90;;;;;;4922531;29;20031;-84
2023/11/21 03:35:31;;;;;;;3.55;0.85;;;10.10;99.90;;;;;;4922495;29;20035;-83
2023/11/21 03:37:56;;;;;;;4.47;0.60;;;10.10;99.90;;;;;;4921860;29;20028;-83
2023/11/21 03:40:22;;;;;;;3.15;1.20;;;10.00;99.90;;;;;;4921702;29;20042;-83
2023/11/21 03:42:48;;;;;;;3.55;0.55;;;10.00;99.90;;;;;;4921479;29;20114;-84
2023/11/21 03:45:14;;;;;;;3.85;0.65;;;10.00;99.90;;;;;;4922196;29;20051;-84
2023/11/21 03:47:43;;;;;;;1.25;0.75;;;10.00;99.90;;;;;;4938293;29;20031;-84
2023/11/21 03:50:09;;;;;;;4.93;0.70;;;10.00;99.90;;;;;;4922206;29;20385;-84
2023/11/21 03:52:35;;;;;;;5.45;0.65;;;10.00;99.90;;;;;;4938198;29;20028;-83
2023/11/21 03:55:01;;;;;;;3.55;0.60;;;10.10;99.90;;;;;;4921923;29;20036;-84
2023/11/21 03:57:27;;;;;;;4.22;0.70;;;10.00;99.90;;;;;;4938853;29;20063;-84
2023/11/21 03:59:53;;;;;;;4.15;0.80;;;10.00;99.90;;;;;;4921627;29;20059;-82
2023/11/21 04:02:19;;;;;;;1.95;0.52;;;10.00;99.90;;;;;;4921694;29;20027;-82
2023/11/21 04:04:45;;;;;;;1.77;0.57;;;10.00;99.90;;;;;;4921394;29;20036;-81
2023/11/21 04:07:11;;;;;;;4.63;0.70;;;10.00;99.90;;;;;;4921335;29;20393;-81
2023/11/21 04:09:36;;;;;;;1.85;0.40;;;9.90;99.90;;;;;;4921098;29;20032;-82
2023/11/21 04:12:02;;;;;;;2.80;0.65;;;10.00;99.90;;;;;;4921562;29;20035;-81
2023/11/21 04:14:28;;;;;;;3.75;0.70;;;10.00;99.90;;;;;;4921382;29;20039;-81
2023/11/21 04:16:54;;;;;;;3.15;0.52;;;10.00;99.90;;;;;;4921133;29;20024;-83
2023/11/21 04:19:20;;;;;;;4.03;1.33;;;10.00;99.90;;;;;;4921357;29;20155;-83
2023/11/21 04:21:46;;;;;;;3.88;0.55;;;10.00;99.90;;;;;;4920995;29;20093;-83
2023/11/21 04:24:11;;;;;;;3.25;0.60;;;10.00;99.90;;;;;;4938289;29;20553;-83
2023/11/21 04:26:37;;;;;;;3.28;0.70;;;10.10;99.90;;;;;;4920634;29;20032;-83
2023/11/21 04:29:03;;;;;;;3.83;0.73;;;10.10;99.90;;;;;;4938243;29;20024;-83
2023/11/21 04:31:30;;;;;;;4.28;0.70;;;10.10;99.90;;;;;;4921160;29;20464;-83
2023/11/21 04:33:55;;;;;;;2.97;0.85;;;10.10;99.90;;;;;;4920582;29;20035;-83
2023/11/21 04:36:21;;;;;;;1.73;0.45;;;10.10;99.90;;;;;;4921166;29;20359;-82
2023/11/21 04:38:46;;;;;;;2.53;0.60;;;10.10;99.90;;;;;;4937319;29;20031;-82
2023/11/21 04:41:12;;;;;;;5.35;1.17;;;10.10;99.90;;;;;;4920898;29;20108;-82
2023/11/21 04:43:37;;;;;;;3.13;0.60;;;10.10;99.90;;;;;;4920955;29;20032;-82
2023/11/21 04:46:03;;;;;;;4.35;0.80;;;10.10;99.90;;;;;;4921253;29;20055;-82
2023/11/21 04:48:29;;;;;;;3.42;0.80;;;10.10;99.90;;;;;;4921394;29;20119;-82
2023/11/21 04:50:54;;;;;;;5.18;0.90;;;10.10;99.90;;;;;;4937068;29;20393;-82
2023/11/21 04:53:20;;;;;;;2.45;0.60;;;10.10;99.90;;;;;;4936711;29;20071;-81
2023/11/21 04:55:46;;;;;;;3.75;0.68;;;10.10;99.90;;;;;;4920265;29;20036;-82
2023/11/21 04:58:12;;;;;;;1.70;0.60;;;10.10;99.90;;;;;;4920668;29;20063;-82
2023/11/21 05:00:38;;;;;;;1.10;0.60;;;10.10;99.90;;;;;;4920688;29;20023;-82
2023/11/21 05:03:05;;;;;;;2.03;0.70;;;10.10;99.90;;;;;;4920296;29;20031;-82
2023/11/21 05:05:30;;;;;;;3.70;0.90;;;10.10;99.90;;;;;;4920635;29;20384;-82
2023/11/21 05:07:56;;;;;;;3.72;0.95;;;10.10;99.90;;;;;;4920111;29;20111;-82
2023/11/21 05:10:22;;;;;;;3.40;0.88;;;10.10;99.90;;;;;;4937378;29;20024;-82
2023/11/21 05:12:50;;;;;;;3.40;0.80;;;10.10;99.90;;;;;;4919999;29;20027;-82
2023/11/21 05:15:17;;;;;;;4.00;0.98;;;10.10;99.90;;;;;;4920363;29;20027;-82
2023/11/21 05:17:49;;;;;;;5.97;1.00;;;10.10;99.90;;;;;;4919864;29;20035;-82
2023/11/21 05:20:20;;;;;;;2.33;0.75;;;10.10;99.90;;;;;;4920112;29;20028;-83
2023/11/21 05:22:48;;;;;;;2.20;0.90;;;10.10;99.90;;;;;;4920129;29;20028;-83
2023/11/21 05:25:13;;;;;;;1.60;1.20;;;10.10;99.90;;;;;;4920365;29;20032;-84
2023/11/21 05:27:39;;;;;;;3.13;1.05;;;10.20;99.90;;;;;;4920390;29;20035;-83
2023/11/21 05:30:06;;;;;;;4.38;0.88;;;10.10;99.90;;;;;;4937282;29;20055;-83
2023/11/21 05:32:35;;;;;;;3.20;0.98;;;10.10;99.90;;;;;;4920334;29;20027;-83
2023/11/21 05:35:01;;;;;;;2.88;0.80;;;10.10;99.90;;;;;;4936629;29;20230;-84
2023/11/21 05:37:27;;;;;;;2.22;1.10;;;10.00;99.90;;;;;;4920205;29;20465;-83
2023/11/21 05:40:04;;;;;;;2.42;1.10;;;10.00;99.90;;;;;;4919635;29;20038;-83
2023/11/21 05:42:30;;;;;;;3.03;1.02;;;10.00;99.90;;;;;;4937340;29;20028;-83
2023/11/21 05:44:59;;;;;;;5.65;1.10;;;10.00;99.90;;;;;;4919643;29;20031;-83
2023/11/21 05:47:26;;;;;;;3.10;0.90;;;10.00;99.90;;;;;;4920245;29;20067;-83
2023/11/21 05:49:52;;;;;;;2.47;0.98;;;10.00;99.90;;;;;;4932049;29;20454;-83
2023/11/21 05:52:18;;;;;;;4.30;1.52;;;10.00;99.90;;;;;;4920621;29;20060;-84
2023/11/21 05:54:43;;;;;;;4.35;1.20;;;10.00;99.90;;;;;;4930911;29;20043;-83
2023/11/21 05:57:09;;;;;;;1.60;0.90;;;10.00;99.90;;;;;;4912828;29;20115;-84
2023/11/21 05:59:34;;;;;;;2.33;0.80;;;10.00;99.90;;;;;;4899710;29;20115;-84
2023/11/21 06:02:00;;;;;;;3.42;1.25;;;10.10;99.90;;;;;;4899620;29;20028;-83
2023/11/21 06:04:25;;;;;;;2.72;1.05;;;10.10;99.90;;;;;;4900468;29;20122;-83
2023/11/21 06:06:52;;;;;;;2.13;1.02;;;10.10;99.90;;;;;;4916567;29;20036;-84
2023/11/21 06:09:18;;;;;;;1.45;1.00;;;10.00;99.90;;;;;;4920297;29;20032;-83
2023/11/21 06:11:44;;;;;;;2.35;1.20;;;10.00;99.90;;;;;;4907488;29;20481;-83
2023/11/21 06:14:10;;;;;;;2.75;1.10;;;10.00;99.90;;;;;;4919644;29;20067;-84
2023/11/21 06:16:36;;;;;;;3.40;1.20;;;10.00;99.90;;;;;;4915255;29;20024;-83
2023/11/21 06:19:02;;;;;;;2.85;1.13;;;10.00;99.90;;;;;;4904799;29;20032;-83
2023/11/21 06:21:27;;;;;;;4.72;1.15;;;10.00;99.90;;;;;;4920212;29;20032;-83
2023/11/21 06:23:53;;;;;;;3.90;1.52;;;10.00;99.90;;;;;;4913975;29;20040;-83
2023/11/21 06:26:19;;;;;;;3.25;1.73;;;10.00;99.90;;;;;;4912709;29;20043;-83
2023/11/21 06:28:45;;;;;;;2.80;1.33;;;10.00;99.90;;;;;;4907389;29;20366;-84
2023/11/21 06:31:10;;;;;;;1.88;1.25;;;10.00;99.90;;;;;;4907032;29;20462;-84
2023/11/21 06:33:36;;;;;;;3.88;1.38;;;10.00;99.90;;;;;;4919619;29;20094;-84
2023/11/21 06:36:05;;;;;;;2.05;1.30;;;10.00;99.90;;;;;;4912809;29;20044;-84
2023/11/21 06:38:32;;;;;;;3.47;1.75;;;10.00;99.90;;;;;;4914209;29;20032;-83
2023/11/21 06:40:58;;;;;;;2.58;1.73;;;10.00;99.90;;;;;;4905865;29;20032;-83
2023/11/21 06:43:23;;;;;;;5.47;1.70;;;10.00;99.90;;;;;;4918074;29;20032;-83
2023/11/21 06:45:49;;;;;;;3.63;1.73;;;10.00;99.90;;;;;;4903988;29;20034;-84
2023/11/21 06:48:15;;;;;;;3.28;1.70;;;10.00;99.90;;;;;;4911982;29;20470;-83
2023/11/21 06:50:41;;;;;;;3.85;1.55;;;10.10;99.90;;;;;;4907386;29;20079;-84
2023/11/21 06:53:08;;;;;;;2.38;1.50;;;10.00;99.90;;;;;;4903750;29;20478;-85
2023/11/21 06:55:33;;;;;;;5.20;2.47;;;10.10;99.90;;;;;;4920593;29;20107;-85
2023/11/21 06:58:00;;;;;;;4.40;1.90;;;10.00;99.90;;;;;;4908659;29;20490;-84
2023/11/21 07:00:27;;;;;;;4.32;1.90;;;10.00;99.90;;;;;;4918042;29;20036;-84
2023/11/21 07:02:54;;;;;;;3.50;1.98;;;10.00;99.90;;;;;;4906183;29;20036;-82
2023/11/21 07:05:21;;;;;;;6.10;2.20;;;10.00;99.90;;;;;;4904939;29;20063;-83
2023/11/21 07:07:48;;;;;;;4.00;1.92;;;10.00;99.90;;;;;;4913783;29;20028;-83
2023/11/21 07:10:14;;;;;;;5.80;2.45;;;10.00;99.90;;;;;;4907742;29;20095;-82
2023/11/21 07:12:40;;;;;;;5.03;1.95;;;10.00;99.90;;;;;;4915097;29;20036;-82
2023/11/21 07:15:09;;;;;;;3.72;1.85;;;10.00;99.90;;;;;;4903561;29;20036;-82
2023/11/21 07:17:35;;;;;;;6.55;2.25;;;10.00;99.90;;;;;;4914919;29;20024;-82
2023/11/21 07:20:01;;;;;;;4.60;2.28;;;10.00;99.90;;;;;;4903840;29;20031;-82
2023/11/21 07:22:27;;;;;;;5.25;2.13;;;10.00;99.90;;;;;;4919843;29;20032;-82
2023/11/21 07:24:52;;;;;;;3.67;2.08;;;10.00;99.90;;;;;;4915510;29;20044;-82
2023/11/21 07:27:18;;;;;;;7.80;2.70;;;10.00;99.90;;;;;;4920235;29;20040;-82
2023/11/21 07:29:44;;;;;;;5.28;1.77;;;10.00;99.90;;;;;;4919370;29;20054;-83
2023/11/21 07:32:09;;;;;;;8.13;2.35;;;9.90;99.90;;;;;;4910286;29;20028;-82
2023/11/21 07:34:36;;;;;;;7.13;2.22;;;9.90;99.90;;;;;;4907371;29;20044;-82
2023/11/21 07:37:02;;;;;;;3.55;2.17;;;9.90;99.90;;;;;;4903766;29;20043;-82
2023/11/21 07:39:28;;;;;;;3.40;1.85;;;9.90;99.90;;;;;;4915791;29;20521;-82
2023/11/21 07:41:54;;;;;;;3.22;1.65;;;9.90;99.90;;;;;;4902124;29;20028;-82
2023/11/21 07:44:19;;;;;;;3.17;1.60;;;10.00;99.90;;;;;;4910649;29;20052;-82
2023/11/21 07:46:45;;;;;;;3.70;2.00;;;10.00;99.90;;;;;;4914896;29;20044;-83
2023/11/21 07:49:11;;;;;;;4.43;2.00;;;10.00;99.90;;;;;;4902968;29;20484;-82
2023/11/21 07:51:37;;;;;;;3.63;1.90;;;10.00;99.90;;;;;;4914242;29;20031;-82
2023/11/21 07:54:03;;;;;;;4.75;2.35;;;10.10;99.90;;;;;;4901697;29;20227;-82
2023/11/21 07:56:28;;;;;;;3.40;1.90;;;10.10;99.90;;;;;;4927537;29;20436;-81
2023/11/21 07:58:54;;;;;;;4.07;1.65;;;10.10;99.90;;;;;;4923818;29;20032;-82
2023/11/21 08:01:19;;;;;;;2.10;1.55;;;10.10;99.90;;;;;;4935788;29;20065;-81
2023/11/21 08:03:45;;;;;;;4.53;1.50;;;10.20;99.90;;;;;;4928505;29;20039;-82
2023/11/21 08:06:12;;;;;;;2.30;1.60;;;10.20;99.90;;;;;;4929220;29;20138;-82
2023/11/21 08:08:37;;;;;;;3.55;1.90;;;10.20;99.90;;;;;;4935870;29;20510;-82
2023/11/21 08:11:03;;;;;;;4.97;1.60;;;10.20;99.90;;;;;;4940643;29;20169;-82
2023/11/21 08:13:32;;;;;;;3.20;1.77;;;10.20;99.90;;;;;;4931035;29;20548;-80
2023/11/21 08:16:03;;;;;;;3.17;2.08;;;10.30;99.90;;;;;;4946960;29;20027;-81
2023/11/21 08:18:32;;;;;;;3.03;1.90;;;10.30;99.90;;;;;;4950509;29;20030;-81
2023/11/21 08:20:58;;;;;;;4.22;2.00;;;10.40;99.90;;;;;;4921804;29;20296;-82
2023/11/21 08:23:26;;;;;;;3.58;2.20;;;10.40;99.90;;;;;;4925803;29;20476;-80
2023/11/21 08:25:53;;;;;;;6.07;2.25;;;10.40;99.90;;;;;;4949113;29;20118;-81
2023/11/21 08:28:19;;;;;;;4.85;2.70;;;10.40;99.90;;;;;;4926887;29;20035;-82
2023/11/21 08:30:45;;;;;;;5.10;2.50;;;10.40;99.90;;;;;;4920311;29;20064;-81
2023/11/21 08:33:13;;;;;;;5.15;2.63;;;10.40;99.90;;;;;;4935987;29;20099;-82
2023/11/21 08:35:39;;;;;;;4.20;2.60;;;10.50;99.90;;;;;;4944701;29;20027;-83
2023/11/21 08:38:05;;;;;;;4.28;2.42;;;10.50;99.90;;;;;;4945042;29;20039;-83
2023/11/21 08:40:31;;;;;;;5.20;2.70;;;10.60;99.90;;;;;;4947255;29;20031;-81
2023/11/21 08:42:58;;;;;;;7.10;3.20;;;10.60;99.90;;;;;;4935578;29;20399;-81
2023/11/21 08:45:25;;;;;;;5.15;3.10;;;10.60;99.90;;;;;;4923195;29;20115;-81
2023/11/21 08:47:50;;;;;;;5.25;3.00;;;10.60;99.90;;;;;;4930062;29;20429;-80
2023/11/21 08:50:16;;;;;;;5.15;3.10;;;10.60;99.90;;;;;;4939096;29;20024;-80
2023/11/21 08:52:42;;;;;;;6.20;2.97;;;10.60;99.90;;;;;;4951318;29;20078;-80
2023/11/21 08:55:08;;;;;;;5.50;3.00;;;10.60;99.90;;;;;;4923259;29;20031;-80
2023/11/21 08:57:35;;;;;;;6.32;3.15;;;10.60;99.90;;;;;;4932097;29;20055;-79
2023/11/21 09:00:03;;;;;;;7.00;3.63;;;10.60;99.90;;;;;;4926574;29;20035;-80
2023/11/21 09:02:28;;;;;;;5.95;3.05;;;10.50;99.90;;;;;;4925187;29;20066;-79
2023/11/21 09:04:54;;;;;;;10.00;3.20;;;10.50;99.90;;;;;;4936358;29;20040;-80
2023/11/21 09:07:20;;;;;;;5.05;3.05;;;10.60;99.90;;;;;;4928546;29;20020;-81
2023/11/21 09:09:47;;;;;;;5.70;3.22;;;10.60;99.90;;;;;;4926812;29;20175;-81
2023/11/21 09:12:13;;;;;;;5.90;2.92;;;10.60;99.90;;;;;;4926798;29;20027;-80
2023/11/21 09:14:39;;;;;;;5.43;3.22;;;10.70;99.90;;;;;;4927824;29;20555;-80
2023/11/21 09:17:10;;;;;;;4.95;3.42;;;10.70;99.90;;;;;;4929351;29;20024;-80
2023/11/21 09:19:39;;;;;;;6.30;3.45;;;10.70;99.90;;;;;;4930584;29;20035;-81
2023/11/21 09:22:05;;;;;;;6.00;3.33;;;10.70;99.90;;;;;;4929292;29;20393;-81
2023/11/21 09:24:32;;;;;;;5.15;3.33;;;10.70;99.90;;;;;;4926292;29;20470;-80
2023/11/21 09:26:57;;;;;;;7.15;3.67;;;10.70;99.90;;;;;;4935712;29;20036;-81
2023/11/21 09:29:23;;;;;;;6.20;3.00;;;10.70;99.90;;;;;;4936334;29;20385;-80
2023/11/21 09:31:51;;;;;;;5.60;3.63;;;10.80;99.90;;;;;;4929242;29;20106;-81
2023/11/21 09:34:16;;;;;;;6.55;3.58;;;10.70;99.90;;;;;;4935543;29;20031;-80
2023/11/21 09:36:45;;;;;;;6.95;3.47;;;10.80;99.90;;;;;;4936265;29;20039;-80
2023/11/21 09:39:14;;;;;;;7.68;3.35;;;10.70;99.90;;;;;;4914053;29;20034;-80
2023/11/21 09:41:58;;;;;;;8.50;3.53;;;10.70;99.90;;;;;;4926219;29;20024;-79
2023/11/21 09:44:42;;;;;;;6.85;3.55;;;10.70;99.90;;;;;;4919955;29;20070;-81
2023/11/21 09:47:10;;;;;;;7.18;3.90;;;10.80;99.90;;;;;;4924297;29;20032;-81
2023/11/21 09:49:37;;;;;;;6.47;3.55;;;10.80;99.90;;;;;;4927452;29;20027;-82
2023/11/21 09:52:05;;;;;;;6.10;3.65;;;10.80;99.90;;;;;;4935242;29;20469;-81
2023/11/21 09:54:31;;;;;;;5.15;3.05;;;10.80;99.90;;;;;;4935090;29;20451;-78
2023/11/21 09:56:59;;;;;;;6.90;3.65;;;10.80;99.90;;;;;;4923770;29;20505;-81
2023/11/21 09:59:29;;;;;;;6.45;3.55;;;10.80;99.90;;;;;;4932225;29;20047;-82
2023/11/21 10:01:58;;;;;;;6.32;3.00;;;10.80;99.90;;;;;;4934484;29;20086;-82
2023/11/21 10:04:24;;;;;;;5.80;3.25;;;10.90;99.90;;;;;;4934881;29;20550;-80
2023/11/21 10:06:51;;;;;;;5.40;2.85;;;10.80;99.90;;;;;;4934471;29;20031;-81
2023/11/21 10:09:17;;;;;;;7.65;3.00;;;10.80;99.90;;;;;;4936018;29;20031;-81
2023/11/21 10:11:46;;;;;;;6.95;2.80;;;10.80;99.90;;;;;;4934737;29;20036;-82
2023/11/21 10:14:13;;;;;;;6.72;3.30;;;10.80;99.90;;;;;;4934615;29;20046;-82
2023/11/21 10:16:40;;;;;;;4.90;2.67;;;10.80;99.90;;;;;;4934715;29;20484;-81
2023/11/21 10:19:09;;;;;;;5.35;2.67;;;10.80;99.90;;;;;;4933942;29;20183;-83
2023/11/21 10:21:35;;;;;;;4.07;2.20;;;10.70;99.90;;;;;;4934415;29;20036;-83
2023/11/21 10:24:01;;;;;;;7.90;2.80;;;10.70;99.90;;;;;;4934505;29;20032;-83
2023/11/21 10:26:28;;;;;;;4.28;2.40;;;10.70;99.90;;;;;;4934796;29;20031;-82
2023/11/21 10:29:04;;;;;;;4.68;2.55;;;10.70;99.90;;;;;;4934939;29;20046;-83
2023/11/21 10:31:30;;;;;;;4.85;2.47;;;10.70;99.90;;;;;;4934627;29;20397;-83
2023/11/21 10:34:12;;;;;;;5.22;2.28;;;10.70;99.90;;;;;;4933718;29;20040;-83
2023/11/21 10:36:38;;;;;;;4.28;2.17;;;10.70;99.90;;;;;;4934794;29;20028;-82
2023/11/21 10:39:04;;;;;;;6.80;2.35;;;10.60;99.90;;;;;;4934148;29;20035;-84
2023/11/21 10:41:29;;;;;;;4.72;2.30;;;10.70;99.90;;;;;;4934608;29;20043;-83
2023/11/21 10:43:56;;;;;;;5.03;2.42;;;10.70;99.90;;;;;;4935016;29;20030;-82
2023/11/21 10:46:23;;;;;;;3.95;2.33;;;10.70;99.90;;;;;;4935016;29;20106;-83
2023/11/21 10:48:54;;;;;;;3.78;2.42;;;10.70;99.90;;;;;;4935847;29;20550;-83
2023/11/21 10:51:20;;;;;;;2.88;1.90;;;10.70;99.90;;;;;;4934782;29;20127;-82
2023/11/21 10:53:46;;;;;;;2.95;1.83;;;10.70;99.90;;;;;;4937673;29;20070;-83
2023/11/21 10:56:19;;;;;;;3.30;2.00;;;10.80;99.90;;;;;;4936738;29;20275;-84
2023/11/21 10:58:45;;;;;;;3.85;2.03;;;10.80;99.90;;;;;;4922180;29;20042;-83
2023/11/21 11:01:14;;;;;;;3.13;1.90;;;10.80;99.90;;;;;;4915921;29;20082;-80
2023/11/21 11:03:41;;;;;;;4.50;2.03;;;10.70;99.90;;;;;;4938610;29;20028;-80
2023/11/21 11:06:11;;;;;;;5.00;2.30;;;10.70;99.90;;;;;;4938008;29;20481;-79
2023/11/21 11:08:40;;;;;;;4.97;1.90;;;10.70;99.90;;;;;;4933125;29;20042;-83
2023/11/21 11:11:07;;;;;;;2.95;2.10;;;10.60;99.90;;;;;;4933973;29;20255;-81
2023/11/21 11:13:33;;;;;;;2.95;1.98;;;10.70;99.90;;;;;;4933513;29;20046;-82
2023/11/21 11:16:00;;;;;;;2.53;1.80;;;10.60;99.90;;;;;;4932859;29;20023;-80
2023/11/21 11:18:29;;;;;;;3.40;1.67;;;10.70;99.90;;;;;;4932756;29;20043;-80
2023/11/21 11:21:10;;;;;;;2.47;1.90;;;10.70;99.90;;;;;;4931347;29;20528;-80
2023/11/21 11:24:11;;;;;;;3.10;1.80;;;10.70;99.90;;;;;;4920977;29;20031;-80
2023/11/21 11:26:51;;;;;;;2.97;1.83;;;10.70;99.90;;;;;;4921075;29;20055;-85
2023/11/21 11:29:38;;;;;;;5.10;2.30;;;10.70;99.90;;;;;;4933316;29;20028;-84
2023/11/21 11:32:12;;;;;;;3.85;2.10;;;10.70;99.90;;;;;;4931748;29;20028;-83
2023/11/21 11:34:52;;;;;;;4.90;2.40;;;10.70;99.90;;;;;;4925300;29;20036;-81
2023/11/21 11:37:19;;;;;;;4.10;1.98;;;10.80;99.90;;;;;;4930623;29;20032;-80
2023/11/21 11:39:45;;;;;;;3.13;1.90;;;10.80;99.90;;;;;;4931820;29;20461;-80
2023/11/21 11:42:16;;;;;;;3.08;2.08;;;10.80;99.90;;;;;;4924857;29;20063;-83
2023/11/21 11:44:51;;;;;;;3.28;2.20;;;10.80;99.90;;;;;;4933517;29;20036;-81
2023/11/21 11:47:19;;;;;;;4.45;2.60;;;10.90;99.90;;;;;;4930340;29;20055;-80
2023/11/21 11:50:10;;;;;;;5.45;2.75;;;10.90;99.90;;;;;;4937768;29;20035;-81
2023/11/21 11:52:47;;;;;;;4.90;2.78;;;10.90;99.90;;;;;;4938236;29;20039;-80
2023/11/21 11:55:21;;;;;;;3.83;2.67;;;10.90;99.90;;;;;;4929866;29;20126;-81
2023/11/21 11:57:50;;;;;;;3.22;2.55;;;10.90;99.90;;;;;;4909285;29;20052;-85
2023/11/21 12:00:31;;;;;;;3.60;2.40;;;10.80;99.90;;;;;;4905075;29;20031;-83
2023/11/21 12:02:58;;;;;;;3.97;2.70;;;10.90;99.90;;;;;;4914913;29;20043;-81
2023/11/21 12:05:29;;;;;;;4.70;2.80;;;10.80;99.90;;;;;;4913813;29;20032;-79
2023/11/21 12:07:57;;;;;;;4.78;2.50;;;10.80;99.90;;;;;;4912984;29;20458;-80
2023/11/21 12:10:27;;;;;;;3.00;2.13;;;10.90;99.90;;;;;;4913384;29;20040;-80
2023/11/21 12:13:13;;;;;;;3.28;2.05;;;10.90;99.90;;;;;;4913041;29;20042;-85
2023/11/21 12:15:41;;;;;;;3.72;2.33;;;10.90;99.90;;;;;;4918352;29;20059;-86
2023/11/21 12:18:06;;;;;;;4.65;2.67;;;10.90;99.90;;;;;;4917784;29;20039;-84
2023/11/21 12:20:38;;;;;;;4.93;2.60;;;10.90;99.90;;;;;;4912693;29;20092;-84
2023/11/21 12:23:05;;;;;;;5.28;2.17;;;11.00;99.90;;;;;;4917669;29;20095;-83
2023/11/21 12:25:35;;;;;;;5.80;2.38;;;11.00;99.90;;;;;;4914917;29;20071;-83
2023/11/21 12:28:02;;;;;;;4.75;2.88;;;11.10;99.90;;;;;;4909554;29;20041;-85
2023/11/21 12:30:35;;;;;;;4.63;2.25;;;11.10;99.90;;;;;;4912667;29;20032;-84
2023/11/21 12:33:01;;;;;;;3.92;2.70;;;11.10;99.90;;;;;;4901158;29;20038;-84
2023/11/21 12:35:33;;;;;;;4.40;2.85;;;11.10;99.90;;;;;;4917304;29;20044;-83
2023/11/21 12:38:00;;;;;;;3.67;2.35;;;11.10;99.90;;;;;;4909368;29;20035;-83
2023/11/21 12:40:27;;;;;;;4.05;2.38;;;11.00;99.90;;;;;;4904764;29;20036;-84
2023/11/21 12:42:55;;;;;;;5.25;2.67;;;11.10;99.90;;;;;;4901212;29;20036;-85
2023/11/21 12:45:27;;;;;;;4.55;2.47;;;11.10;99.90;;;;;;4915010;29;20060;-85
2023/11/21 12:48:02;;;;;;;3.88;2.10;;;11.20;99.90;;;;;;4903006;29;20032;-84